Kezdőlap
METAR-TAF:

METAR-TAF

Repülőterek :

Gwadar, Pakisztán

földrajzi szélesség: 25-13-59N, földrajzi hosszúság: 062-19-46E, magasság: 29 m

METAR: hiányzik

Idő: 23:24 (18:24 UTC)

Előrejelzés

A jelentés 2 órával és 54 perccel ezelõtt készült, 15:30 UTC
Az előrejelzés 22-én 18 óra UTC és 23-én 18 óra UTC között érvényes
Déli szél 7 kt
Látótávolság: 3000 m
Szórványos felhőzet 3000 lábon
füst
23-én 00 óra UTC és 23-én 04 óra UTC között ideiglenes
Különbözõ irányokból fújó szél 3 kt
Látótávolság: 2000 m
Szakadozott felhőzet 2000 lábon
Párásság
23-én 0600 órától UTC szerint
Dél-délnyugati szél 8 kt széllökések: 18 kt
Látótávolság: 6000 m
Szórványos felhőzet 3000 lábon

TAF: OPGD 221530Z 2218/2318 18007KT 3000 FU SCT030 TEMPO 2300/2304 VRB03KT 2000 BR BKN020 FM230600 21008G18KT 6000 SCT030

Meteorológiai megfigyelések és előrejelzések több, mint 4000 repülőtéren (METAR és TAF jelentéseket).

A térképen piros és sárga pontok jelzik az elérhető meteorológiai állomásokat.

Mozgassa az egeret a pont fölött, hogy megjelenjen az állomás neve.

Azután kattintson az időjárási megfigyelések és előrejelzések megtekintéséhez.

A térkép megváltoztatása: kattintson a fekete keresztel jelölt zöld gombra ráközelítéshez, a vonallal jelölt zöld gombra távolításhoz, vagy a zöld nyilakra a szomszédos térképek eléréséhez.


METAR-TAF: